KFNT/FNT METAR and TAF weather

Enter ICAO airport designator
Station Type Date Time Source
KFNT METAR 2019/05/26 00:53 UTC NOAA

KFNT 260053Z 26008KT 10SM CLR 23/17 A2992 RMK AO2 SLP127 T02330167


Station Type Date Time Source
KFNT Decoded METAR 2019/05/26 00:53 UTC NOAA

FLINT BISHOP INTERNATIONAL AIRPORT, MI, United States (KFNT) 42-58N 83-45W 233M
May 25, 2019 - 08:53 PM EDT / 2019.05.26 0053 UTC
Wind: from the W (260 degrees) at 9 MPH (8 KT):0
Visibility: 10 mile(s):0
Sky conditions: clear
Temperature: 73.9 F (23.3 C)
Dew Point: 62.1 F (16.7 C)
Relative Humidity: 66%
Pressure (altimeter): 29.92 in. Hg (1013 hPa)
ob: KFNT 260053Z 26008KT 10SM CLR 23/17 A2992 RMK AO2 SLP127 T02330167
cycle: 1

Station Type Date Time Source
KFNT TAF 2019/05/25 21:33 UTC NOAA

TAF
AMD KFNT 252030Z 2521/2618 26013G23KT P6SM SCT030 BKN100
FM260000 23007KT P6SM SCT200
FM260800 31005KT P6SM BKN050

Example: see airport list